Time;durP1;ratioP1;P1;durP2;ratioP2;P2;SDS_P1;SDS_P2;PMS_P1;PMS_P2;Temp;Humidity;BMP_temperature;BMP_pressure;BME280_temperature;BME280_humidity;BME280_pressure;Samples;Min_cycle;Max_cycle;Signal;HPM_P1;HPM_P2
2023/07/17 00:00:44;;;;;;;0.50;0.50;;;19.90;71.30;;;;;;5071926;28;20036;-59
2023/07/17 00:03:09;;;;;;;0.88;0.50;;;19.90;71.40;;;;;;5069743;28;20048;-59
2023/07/17 00:05:35;;;;;;;0.65;0.65;;;20.00;71.70;;;;;;5076110;28;20024;-59
2023/07/17 00:08:00;;;;;;;0.50;0.50;;;19.90;72.00;;;;;;5079700;28;20218;-62
2023/07/17 00:10:26;;;;;;;0.60;0.50;;;19.90;72.20;;;;;;5082519;28;20048;-62
2023/07/17 00:12:52;;;;;;;0.95;0.50;;;19.90;72.30;;;;;;5076408;28;20020;-62
2023/07/17 00:15:17;;;;;;;2.92;0.68;;;19.80;72.20;;;;;;5074806;28;20161;-63
2023/07/17 00:17:43;;;;;;;1.58;0.70;;;19.90;72.50;;;;;;5081811;28;20063;-62
2023/07/17 00:20:11;;;;;;;0.75;0.60;;;19.90;72.70;;;;;;5082626;28;20032;-62
2023/07/17 00:22:37;;;;;;;0.30;0.30;;;19.80;72.80;;;;;;5088029;28;20539;-62
2023/07/17 00:25:04;;;;;;;0.77;0.70;;;19.80;73.00;;;;;;5084932;28;20085;-59
2023/07/17 00:27:30;;;;;;;1.13;1.02;;;19.80;73.20;;;;;;5080961;28;20490;-59
2023/07/17 00:29:56;;;;;;;1.92;0.90;;;19.70;73.40;;;;;;5073060;28;20735;-59
2023/07/17 00:32:22;;;;;;;1.25;0.60;;;19.70;73.60;;;;;;5084924;28;20043;-59
2023/07/17 00:34:48;;;;;;;1.00;0.80;;;19.70;73.70;;;;;;5084859;28;20025;-59
2023/07/17 00:37:14;;;;;;;0.85;0.63;;;19.70;73.70;;;;;;5084103;28;20023;-59
2023/07/17 00:39:39;;;;;;;0.80;0.60;;;19.70;73.90;;;;;;5084045;28;20023;-59
2023/07/17 00:42:05;;;;;;;0.82;0.57;;;19.60;74.00;;;;;;5068876;28;20028;-59
2023/07/17 00:44:31;;;;;;;2.42;1.15;;;19.70;74.10;;;;;;5075055;28;20051;-59
2023/07/17 00:46:58;;;;;;;1.80;0.93;;;19.60;74.10;;;;;;5081500;28;20053;-58
2023/07/17 00:49:28;;;;;;;1.15;0.70;;;19.60;74.10;;;;;;5083689;28;20026;-59
2023/07/17 00:51:56;;;;;;;0.60;0.60;;;19.60;74.20;;;;;;5077730;28;20021;-59
2023/07/17 00:54:22;;;;;;;0.80;0.70;;;19.60;74.10;;;;;;5068143;28;20016;-59
2023/07/17 00:56:48;;;;;;;0.68;0.63;;;19.60;74.20;;;;;;5084700;28;20027;-59
2023/07/17 00:59:15;;;;;;;2.35;0.70;;;19.50;74.30;;;;;;5086364;28;20596;-59
2023/07/17 01:01:42;;;;;;;1.13;1.02;;;19.50;74.30;;;;;;5085829;28;20020;-59
2023/07/17 01:04:08;;;;;;;1.38;0.73;;;19.50;74.30;;;;;;5078749;28;20123;-59
2023/07/17 01:06:38;;;;;;;1.63;0.80;;;19.40;74.20;;;;;;5079137;28;20435;-59
2023/07/17 01:09:04;;;;;;;0.95;0.82;;;19.40;74.10;;;;;;5074765;28;20395;-58
2023/07/17 01:11:30;;;;;;;1.15;0.95;;;19.40;74.10;;;;;;5086840;28;20383;-59
2023/07/17 01:13:56;;;;;;;1.20;0.80;;;19.40;74.10;;;;;;5069366;28;20020;-59
2023/07/17 01:16:22;;;;;;;2.42;0.95;;;19.40;74.10;;;;;;5077076;28;20539;-59
2023/07/17 01:18:48;;;;;;;0.50;0.50;;;19.40;74.30;;;;;;5078071;28;20162;-59
2023/07/17 01:21:17;;;;;;;1.13;0.45;;;19.30;74.30;;;;;;5083827;28;20047;-62
2023/07/17 01:23:44;;;;;;;4.93;1.13;;;19.40;74.40;;;;;;5085168;28;20391;-62
2023/07/17 01:26:18;;;;;;;4.03;0.98;;;19.30;74.50;;;;;;5084621;28;20034;-62
2023/07/17 01:28:44;;;;;;;1.75;0.93;;;19.30;74.50;;;;;;5079915;28;20032;-62
2023/07/17 01:31:11;;;;;;;1.60;1.00;;;19.20;74.60;;;;;;5079891;28;20028;-62
2023/07/17 01:33:37;;;;;;;3.58;1.10;;;19.20;74.80;;;;;;5078731;28;20482;-62
2023/07/17 01:36:05;;;;;;;1.33;0.93;;;19.10;74.90;;;;;;5067176;28;20113;-62
2023/07/17 01:38:32;;;;;;;0.60;0.60;;;19.10;75.10;;;;;;5080844;28;20025;-62
2023/07/17 01:40:57;;;;;;;1.02;0.70;;;19.10;75.20;;;;;;5082892;28;20065;-62
2023/07/17 01:43:23;;;;;;;2.35;1.05;;;19.10;75.10;;;;;;5082925;28;20036;-62
2023/07/17 01:45:49;;;;;;;0.93;0.65;;;19.10;75.00;;;;;;5080296;28;20385;-62
2023/07/17 01:48:17;;;;;;;1.00;0.90;;;19.10;75.80;;;;;;5081354;28;20119;-62
2023/07/17 01:50:46;;;;;;;1.48;1.10;;;19.10;75.30;;;;;;5087103;28;20027;-59
2023/07/17 01:53:13;;;;;;;1.23;0.90;;;19.00;75.40;;;;;;5086048;28;20028;-58
2023/07/17 01:55:38;;;;;;;2.60;1.23;;;19.10;75.40;;;;;;5079413;28;20040;-58
2023/07/17 01:58:04;;;;;;;0.60;0.60;;;19.00;75.40;;;;;;5080302;28;20218;-59
2023/07/17 02:00:30;;;;;;;1.85;1.08;;;19.00;75.40;;;;;;5084255;28;20092;-59
2023/07/17 02:02:55;;;;;;;0.93;0.80;;;19.00;75.50;;;;;;5076988;28;20031;-58
2023/07/17 02:05:22;;;;;;;1.13;0.70;;;18.90;75.60;;;;;;5082975;28;20095;-58
2023/07/17 02:07:47;;;;;;;1.20;0.80;;;18.90;75.70;;;;;;5079549;28;20040;-59
2023/07/17 02:10:13;;;;;;;1.27;0.85;;;18.90;76.00;;;;;;5077668;28;20456;-59
2023/07/17 02:12:39;;;;;;;1.42;0.70;;;18.90;75.90;;;;;;5076357;28;20033;-59
2023/07/17 02:15:06;;;;;;;2.08;0.95;;;18.80;75.90;;;;;;5070785;28;20407;-58
2023/07/17 02:17:32;;;;;;;0.73;0.60;;;18.90;76.00;;;;;;5086533;28;20137;-62
2023/07/17 02:19:58;;;;;;;1.73;0.90;;;18.80;75.90;;;;;;5081497;28;20479;-62
2023/07/17 02:22:24;;;;;;;1.10;0.85;;;18.90;76.00;;;;;;5073405;28;20066;-62
2023/07/17 02:24:49;;;;;;;0.85;0.70;;;18.80;75.90;;;;;;5080571;28;20467;-63
2023/07/17 02:27:16;;;;;;;1.73;0.80;;;18.80;75.90;;;;;;5060804;28;20033;-62
2023/07/17 02:29:41;;;;;;;1.42;0.90;;;18.80;76.00;;;;;;5102932;28;20478;-63
2023/07/17 02:32:07;;;;;;;1.55;0.90;;;18.70;76.00;;;;;;5087605;28;20047;-63
2023/07/17 02:34:33;;;;;;;0.50;0.50;;;18.70;75.90;;;;;;5085561;28;20066;-60
2023/07/17 02:36:59;;;;;;;1.20;0.75;;;18.70;75.90;;;;;;5082258;28;20032;-60
2023/07/17 02:39:24;;;;;;;1.83;1.15;;;18.70;75.90;;;;;;5086046;28;20039;-59
2023/07/17 02:41:50;;;;;;;1.10;0.85;;;18.70;76.00;;;;;;5085104;28;20480;-59
2023/07/17 02:44:16;;;;;;;1.00;0.77;;;18.70;76.00;;;;;;5090250;28;20583;-60
2023/07/17 02:46:41;;;;;;;0.77;0.52;;;18.70;76.00;;;;;;5091270;28;20054;-59
2023/07/17 02:49:11;;;;;;;1.25;0.77;;;18.60;76.00;;;;;;5088437;28;20027;-59
2023/07/17 02:51:37;;;;;;;1.35;1.08;;;18.60;76.10;;;;;;5089753;28;20620;-59
2023/07/17 02:54:03;;;;;;;1.95;1.23;;;18.60;76.10;;;;;;5089424;28;20075;-59
2023/07/17 02:56:28;;;;;;;1.15;1.05;;;18.60;76.00;;;;;;5081367;28;20084;-59
2023/07/17 02:58:54;;;;;;;0.98;0.70;;;18.50;75.90;;;;;;5080631;28;20443;-59
2023/07/17 03:01:20;;;;;;;1.33;0.82;;;18.60;76.00;;;;;;5088002;28;20056;-60
2023/07/17 03:03:46;;;;;;;1.40;0.98;;;18.50;75.80;;;;;;5084953;28;20043;-59
2023/07/17 03:06:12;;;;;;;1.25;0.70;;;18.50;75.90;;;;;;5075452;28;20063;-63
2023/07/17 03:08:38;;;;;;;3.97;1.13;;;18.50;76.00;;;;;;5089099;28;20558;-63
2023/07/17 03:11:04;;;;;;;0.90;0.90;;;18.50;76.10;;;;;;5079849;28;20379;-62
2023/07/17 03:13:30;;;;;;;1.38;0.82;;;18.40;76.10;;;;;;5085189;28;20409;-63
2023/07/17 03:15:58;;;;;;;0.65;0.65;;;18.40;76.30;;;;;;5077710;28;20081;-63
2023/07/17 03:18:27;;;;;;;2.10;0.82;;;18.40;76.30;;;;;;5085083;28;20024;-62
2023/07/17 03:20:56;;;;;;;1.27;0.98;;;18.40;76.30;;;;;;5071944;28;20070;-62
2023/07/17 03:23:22;;;;;;;1.55;0.85;;;18.40;76.30;;;;;;5080312;28;20021;-62
2023/07/17 03:25:47;;;;;;;1.67;0.88;;;18.40;76.30;;;;;;5082051;28;20031;-62
2023/07/17 03:28:13;;;;;;;0.68;0.68;;;18.40;76.40;;;;;;5082989;28;20095;-62
2023/07/17 03:30:42;;;;;;;1.13;0.80;;;18.30;76.40;;;;;;5084896;28;20031;-62
2023/07/17 03:33:08;;;;;;;0.70;0.65;;;18.30;76.30;;;;;;5076769;28;20325;-62
2023/07/17 03:35:34;;;;;;;1.17;0.80;;;18.30;76.30;;;;;;5069858;28;20484;-62
2023/07/17 03:37:59;;;;;;;1.75;1.05;;;18.30;76.30;;;;;;5081488;28;20043;-62
2023/07/17 03:40:25;;;;;;;4.32;1.17;;;18.30;76.30;;;;;;5083870;28;20043;-62
2023/07/17 03:42:51;;;;;;;2.08;1.25;;;18.20;76.50;;;;;;5079703;28;20031;-62
2023/07/17 03:45:17;;;;;;;3.22;1.15;;;18.10;76.70;;;;;;5076456;28;20036;-62
2023/07/17 03:47:43;;;;;;;1.10;0.65;;;18.10;76.90;;;;;;5073686;28;20054;-62
2023/07/17 03:50:09;;;;;;;4.20;1.00;;;18.10;76.90;;;;;;5079484;28;20115;-62
2023/07/17 03:52:35;;;;;;;2.92;1.38;;;18.10;76.80;;;;;;5068848;28;20163;-60
2023/07/17 03:55:01;;;;;;;1.73;0.88;;;18.10;76.70;;;;;;5077963;28;20040;-62
2023/07/17 03:57:26;;;;;;;3.90;0.95;;;18.10;76.60;;;;;;5074968;28;20035;-59
2023/07/17 03:59:54;;;;;;;0.88;0.88;;;18.10;76.60;;;;;;5076072;28;20538;-59
2023/07/17 04:02:20;;;;;;;0.75;0.68;;;18.00;76.60;;;;;;5072817;28;20105;-58
2023/07/17 04:04:46;;;;;;;2.38;0.98;;;18.00;76.70;;;;;;5072197;28;20775;-59
2023/07/17 04:07:12;;;;;;;4.00;1.25;;;18.00;76.70;;;;;;5073458;28;20577;-62
2023/07/17 04:09:38;;;;;;;1.52;1.05;;;18.00;76.60;;;;;;5082599;28;20082;-62
2023/07/17 04:12:05;;;;;;;0.75;0.60;;;18.00;76.50;;;;;;5082499;28;20028;-62
2023/07/17 04:14:32;;;;;;;1.60;1.10;;;18.00;76.50;;;;;;5073079;28;20375;-62
2023/07/17 04:16:57;;;;;;;1.27;1.13;;;18.10;76.50;;;;;;5079134;28;20027;-62
2023/07/17 04:19:23;;;;;;;0.85;0.75;;;18.10;76.50;;;;;;5078057;28;20036;-62
2023/07/17 04:21:49;;;;;;;1.42;1.25;;;18.10;76.50;;;;;;5057400;28;20060;-62
2023/07/17 04:24:15;;;;;;;1.42;1.20;;;18.00;76.50;;;;;;5071417;28;20057;-59
2023/07/17 04:26:40;;;;;;;1.70;0.82;;;18.00;76.40;;;;;;5070722;28;20035;-59
2023/07/17 04:29:10;;;;;;;1.17;0.60;;;18.10;76.50;;;;;;5079944;28;20039;-62
2023/07/17 04:31:36;;;;;;;0.95;0.80;;;18.10;76.40;;;;;;5076205;28;20548;-62
2023/07/17 04:34:02;;;;;;;1.00;0.75;;;18.10;76.30;;;;;;5079566;28;20028;-62
2023/07/17 04:36:28;;;;;;;1.98;1.40;;;18.10;76.30;;;;;;5076305;28;20029;-59
2023/07/17 04:38:53;;;;;;;2.92;1.15;;;18.10;76.30;;;;;;5080337;28;20028;-59
2023/07/17 04:41:19;;;;;;;2.13;0.90;;;18.10;76.30;;;;;;5074246;28;20032;-60
2023/07/17 04:43:45;;;;;;;1.15;0.88;;;18.00;76.30;;;;;;5071680;28;20078;-59
2023/07/17 04:46:10;;;;;;;1.15;0.70;;;18.10;76.30;;;;;;5071334;28;21886;-59
2023/07/17 04:48:36;;;;;;;3.38;1.10;;;18.20;76.60;;;;;;5073551;28;20434;-59
2023/07/17 04:51:02;;;;;;;1.10;0.75;;;18.20;76.10;;;;;;5072878;28;20032;-62
2023/07/17 04:53:27;;;;;;;1.75;0.80;;;18.20;76.00;;;;;;5074972;28;20070;-62
2023/07/17 04:55:53;;;;;;;1.20;1.00;;;18.30;76.40;;;;;;5077359;28;20025;-62
2023/07/17 04:58:19;;;;;;;1.88;1.15;;;18.30;75.90;;;;;;5071798;28;20056;-62
2023/07/17 05:00:46;;;;;;;2.03;1.13;;;18.30;75.80;;;;;;5075820;28;20028;-59
2023/07/17 05:03:16;;;;;;;3.08;1.33;;;18.30;75.70;;;;;;5075823;28;20029;-59
2023/07/17 05:05:48;;;;;;;6.00;1.25;;;18.30;75.60;;;;;;5070600;28;20032;-59
2023/07/17 05:08:14;;;;;;;;;;;18.30;75.60;;;;;;5078921;28;20025;-59
2023/07/17 05:10:40;;;;;;;3.47;1.65;;;18.20;75.60;;;;;;5076301;28;19927;-59
2023/07/17 05:13:05;;;;;;;3.88;1.27;;;18.30;75.50;;;;;;5075971;28;20062;-62
2023/07/17 05:15:31;;;;;;;3.13;1.63;;;18.20;75.50;;;;;;5076286;28;20392;-62
2023/07/17 05:17:56;;;;;;;5.85;1.25;;;18.30;76.10;;;;;;5075911;28;20035;-62
2023/07/17 05:20:22;;;;;;;3.90;1.17;;;18.30;75.50;;;;;;5074529;28;20029;-63
2023/07/17 05:22:48;;;;;;;3.20;1.42;;;18.20;75.40;;;;;;5078447;28;20063;-63
2023/07/17 05:25:13;;;;;;;3.08;1.33;;;18.20;75.30;;;;;;5075217;28;20047;-59
2023/07/17 05:27:39;;;;;;;2.67;1.38;;;18.30;75.40;;;;;;5078490;28;20119;-60
2023/07/17 05:30:06;;;;;;;6.22;1.25;;;18.30;75.30;;;;;;5075508;28;20478;-59
2023/07/17 05:32:32;;;;;;;2.38;1.23;;;18.30;75.20;;;;;;5073451;28;20035;-59
2023/07/17 05:34:58;;;;;;;3.28;1.55;;;18.30;75.00;;;;;;5072480;28;20368;-59
2023/07/17 05:37:24;;;;;;;2.15;1.30;;;18.40;75.10;;;;;;5079152;28;20036;-59
2023/07/17 05:39:49;;;;;;;2.97;1.35;;;18.40;74.80;;;;;;5076333;28;20099;-59
2023/07/17 05:42:15;;;;;;;2.78;1.42;;;18.40;74.70;;;;;;5078809;28;20039;-59
2023/07/17 05:44:41;;;;;;;3.13;1.77;;;18.40;74.50;;;;;;5081533;28;20111;-59
2023/07/17 05:47:07;;;;;;;3.13;1.80;;;18.40;74.30;;;;;;5080851;28;20036;-59
2023/07/17 05:49:32;;;;;;;3.03;1.20;;;18.40;74.60;;;;;;5071954;28;20025;-59
2023/07/17 05:51:58;;;;;;;3.50;1.73;;;18.40;74.40;;;;;;5079597;28;20039;-59
2023/07/17 05:54:24;;;;;;;6.65;1.80;;;18.50;74.10;;;;;;5088671;28;20087;-59
2023/07/17 05:56:49;;;;;;;2.63;1.50;;;18.50;74.00;;;;;;5086895;28;20026;-59
2023/07/17 05:59:15;;;;;;;3.85;1.92;;;18.60;74.10;;;;;;5067691;28;20129;-59
2023/07/17 06:01:41;;;;;;;12.98;2.67;;;18.60;73.90;;;;;;5085586;28;20044;-59
2023/07/17 06:04:07;;;;;;;3.00;1.38;;;18.60;73.50;;;;;;5071059;28;20070;-59
2023/07/17 06:06:33;;;;;;;4.85;1.70;;;18.70;73.60;;;;;;5074324;28;20061;-60
2023/07/17 06:09:01;;;;;;;3.72;1.55;;;18.80;73.60;;;;;;5077076;28;20515;-59
2023/07/17 06:11:27;;;;;;;6.55;2.35;;;18.80;73.10;;;;;;5072686;28;20060;-59
2023/07/17 06:13:52;;;;;;;2.22;1.30;;;18.80;72.90;;;;;;5079741;28;20029;-58
2023/07/17 06:16:18;;;;;;;2.63;1.65;;;18.90;72.90;;;;;;5074310;28;20491;-58
2023/07/17 06:18:44;;;;;;;3.90;1.83;;;18.90;73.00;;;;;;5081343;28;20399;-58
2023/07/17 06:21:10;;;;;;;8.40;2.00;;;19.00;72.70;;;;;;5074266;28;20036;-58
2023/07/17 06:23:36;;;;;;;3.75;2.05;;;19.00;72.60;;;;;;5063935;28;20391;-58
2023/07/17 06:26:03;;;;;;;4.47;2.15;;;19.00;72.40;;;;;;5064635;28;20028;-58
2023/07/17 06:28:29;;;;;;;1.92;1.42;;;18.90;72.40;;;;;;5065129;28;20078;-58
2023/07/17 06:30:55;;;;;;;4.82;1.25;;;18.90;72.60;;;;;;5079101;28;20410;-59
2023/07/17 06:33:22;;;;;;;4.57;1.48;;;19.00;72.70;;;;;;5076945;28;20028;-59
2023/07/17 06:35:48;;;;;;;7.60;2.50;;;19.10;72.40;;;;;;5080247;28;20522;-63
2023/07/17 06:38:14;;;;;;;4.13;1.50;;;19.20;72.00;;;;;;5072341;28;20035;-64
2023/07/17 06:40:40;;;;;;;7.05;1.92;;;19.30;72.00;;;;;;5068595;28;20120;-58
2023/07/17 06:43:05;;;;;;;4.35;2.15;;;19.40;71.70;;;;;;5076931;28;20024;-59
2023/07/17 06:45:31;;;;;;;3.47;1.88;;;19.50;71.50;;;;;;5084484;28;20171;-62
2023/07/17 06:47:57;;;;;;;3.17;1.83;;;19.40;71.70;;;;;;5071964;28;20113;-57
2023/07/17 06:50:22;;;;;;;4.00;2.63;;;19.50;71.40;;;;;;5076786;28;20031;-63
2023/07/17 06:52:48;;;;;;;4.40;1.67;;;19.50;71.30;;;;;;5072869;28;20028;-63
2023/07/17 06:55:14;;;;;;;4.40;2.50;;;19.50;71.20;;;;;;5070490;28;20036;-58
2023/07/17 06:57:39;;;;;;;5.53;2.63;;;19.50;71.10;;;;;;5083891;28;20028;-59
2023/07/17 07:00:06;;;;;;;3.13;1.75;;;19.50;71.20;;;;;;5080127;28;20028;-61
2023/07/17 07:02:32;;;;;;;6.82;2.20;;;19.60;71.30;;;;;;5078103;28;20052;-63
2023/07/17 07:04:57;;;;;;;3.83;1.80;;;19.60;71.10;;;;;;5077267;28;20093;-58
2023/07/17 07:07:23;;;;;;;3.75;2.13;;;19.50;70.90;;;;;;5078347;28;20059;-58
2023/07/17 07:09:49;;;;;;;5.32;2.10;;;19.60;71.10;;;;;;5074597;28;20052;-58
2023/07/17 07:12:14;;;;;;;4.20;2.28;;;19.80;71.00;;;;;;5084935;28;20029;-63
2023/07/17 07:14:41;;;;;;;3.22;1.92;;;19.80;70.40;;;;;;5076732;28;20063;-63
2023/07/17 07:17:07;;;;;;;3.33;1.98;;;19.80;70.40;;;;;;5081991;28;20052;-62
2023/07/17 07:19:33;;;;;;;5.22;2.90;;;19.90;70.30;;;;;;5080800;28;20071;-63
2023/07/17 07:21:59;;;;;;;4.78;2.10;;;19.80;70.20;;;;;;5082414;28;20064;-62
2023/07/17 07:24:25;;;;;;;3.95;2.35;;;19.80;70.40;;;;;;5078507;28;20047;-61
2023/07/17 07:26:50;;;;;;;3.30;2.30;;;19.80;70.00;;;;;;5085059;28;20032;-62
2023/07/17 07:29:16;;;;;;;4.93;2.05;;;19.70;70.10;;;;;;5078180;28;20052;-58
2023/07/17 07:31:42;;;;;;;3.45;1.80;;;19.70;70.30;;;;;;5071039;28;20052;-58
2023/07/17 07:34:07;;;;;;;4.32;2.45;;;19.70;70.30;;;;;;5077082;28;20024;-58
2023/07/17 07:36:33;;;;;;;3.95;1.92;;;19.60;70.50;;;;;;5082767;28;20033;-63
2023/07/17 07:38:59;;;;;;;3.95;2.58;;;19.70;70.40;;;;;;5078128;28;20499;-63
2023/07/17 07:41:25;;;;;;;4.90;2.42;;;19.80;70.30;;;;;;5069466;28;20491;-59
2023/07/17 07:43:50;;;;;;;6.07;2.67;;;19.90;70.00;;;;;;5071494;28;20043;-63
2023/07/17 07:46:16;;;;;;;2.95;1.85;;;20.00;69.70;;;;;;5060484;28;20126;-64
2023/07/17 07:48:42;;;;;;;7.10;2.33;;;20.00;69.50;;;;;;5074105;28;20021;-65
2023/07/17 07:51:07;;;;;;;5.38;2.10;;;20.00;69.40;;;;;;5080192;28;20028;-64
2023/07/17 07:53:33;;;;;;;7.68;2.95;;;19.90;69.50;;;;;;5081382;28;20086;-63
2023/07/17 07:56:00;;;;;;;5.38;2.30;;;20.00;69.20;;;;;;5077260;28;20047;-64
2023/07/17 07:58:26;;;;;;;2.40;1.65;;;20.10;68.60;;;;;;5077351;28;20066;-63
2023/07/17 08:00:53;;;;;;;4.95;2.08;;;20.10;68.10;;;;;;5078054;28;20032;-58
2023/07/17 08:03:18;;;;;;;2.25;1.88;;;20.20;67.80;;;;;;5069542;28;20056;-63
2023/07/17 08:05:44;;;;;;;2.78;1.83;;;20.20;68.00;;;;;;5072748;28;20052;-65
2023/07/17 08:08:10;;;;;;;3.03;1.60;;;20.30;68.10;;;;;;5073130;28;20021;-63
2023/07/17 08:10:37;;;;;;;4.13;1.75;;;20.40;68.00;;;;;;5080037;28;20132;-62
2023/07/17 08:13:04;;;;;;;5.45;1.92;;;20.50;67.00;;;;;;5061101;28;20055;-61
2023/07/17 08:15:29;;;;;;;2.25;1.95;;;20.60;67.00;;;;;;5065703;28;20121;-61
2023/07/17 08:17:55;;;;;;;15.20;2.58;;;20.60;66.80;;;;;;5078384;28;20437;-62
2023/07/17 08:20:21;;;;;;;4.53;2.10;;;20.70;66.20;;;;;;5075865;28;20056;-61
2023/07/17 08:22:48;;;;;;;2.88;2.10;;;20.80;65.70;;;;;;5079658;28;20035;-58
2023/07/17 08:25:14;;;;;;;3.20;1.70;;;21.00;65.60;;;;;;5074394;28;20055;-62
2023/07/17 08:27:39;;;;;;;2.22;1.50;;;21.10;64.30;;;;;;5074402;28;20067;-57
2023/07/17 08:30:06;;;;;;;2.80;1.67;;;21.10;63.80;;;;;;5080411;28;20434;-58
2023/07/17 08:32:32;;;;;;;2.10;1.35;;;21.10;63.80;;;;;;5071939;28;20101;-58
2023/07/17 08:34:57;;;;;;;3.80;1.45;;;21.10;63.40;;;;;;5072472;28;20040;-58
2023/07/17 08:37:23;;;;;;;5.93;2.17;;;21.20;64.10;;;;;;5067144;28;20082;-58
2023/07/17 08:39:48;;;;;;;3.38;1.83;;;21.20;63.60;;;;;;5068789;28;20858;-58
2023/07/17 08:42:14;;;;;;;1.65;1.35;;;21.20;63.30;;;;;;5081728;28;20047;-62
2023/07/17 08:44:40;;;;;;;4.07;1.48;;;21.20;63.70;;;;;;5066860;28;20036;-59
2023/07/17 08:47:08;;;;;;;3.83;1.40;;;21.20;63.60;;;;;;5068366;28;20029;-58
2023/07/17 08:49:35;;;;;;;4.32;1.77;;;21.30;64.00;;;;;;5069330;28;20552;-58
2023/07/17 08:52:03;;;;;;;8.07;1.67;;;21.50;63.70;;;;;;5070489;28;20024;-62
2023/07/17 08:54:29;;;;;;;3.00;1.20;;;21.50;62.60;;;;;;5067308;28;20032;-58
2023/07/17 08:57:00;;;;;;;2.38;1.75;;;21.50;62.60;;;;;;5067109;28;20110;-58
2023/07/17 08:59:26;;;;;;;3.38;1.70;;;21.50;62.80;;;;;;5067364;28;20398;-58
2023/07/17 09:01:52;;;;;;;1.73;1.25;;;21.40;63.10;;;;;;5077938;28;20386;-58
2023/07/17 09:04:19;;;;;;;2.55;1.27;;;21.40;63.20;;;;;;5070870;28;20476;-59
2023/07/17 09:06:45;;;;;;;3.75;1.58;;;21.70;63.30;;;;;;5079773;28;20048;-62
2023/07/17 09:09:11;;;;;;;4.20;1.38;;;21.80;62.10;;;;;;5059080;28;20476;-61
2023/07/17 09:11:37;;;;;;;4.43;0.90;;;21.80;61.90;;;;;;5066543;28;20029;-62
2023/07/17 09:14:03;;;;;;;3.80;1.65;;;21.90;61.80;;;;;;5064885;28;20541;-63
2023/07/17 09:16:29;;;;;;;4.85;1.00;;;21.90;61.60;;;;;;5078521;28;20131;-61
2023/07/17 09:18:55;;;;;;;1.77;1.00;;;22.00;61.80;;;;;;5074456;28;20028;-59
2023/07/17 09:21:23;;;;;;;1.77;1.23;;;22.10;61.30;;;;;;5074616;28;20039;-58
2023/07/17 09:23:53;;;;;;;1.45;1.30;;;22.30;61.20;;;;;;5081157;28;20532;-61
2023/07/17 09:26:21;;;;;;;1.45;1.20;;;22.50;61.10;;;;;;5079694;28;20025;-61
2023/07/17 09:28:52;;;;;;;2.70;1.50;;;22.50;60.40;;;;;;5078563;28;20491;-61
2023/07/17 09:31:32;;;;;;;2.35;1.55;;;22.30;59.50;;;;;;5071864;28;20024;-62
2023/07/17 09:33:59;;;;;;;1.65;0.98;;;22.00;59.30;;;;;;5077793;28;20028;-62
2023/07/17 09:36:26;;;;;;;2.50;1.33;;;21.80;60.30;;;;;;5077658;28;20383;-62
2023/07/17 09:38:53;;;;;;;1.10;0.80;;;21.80;60.10;;;;;;5070820;28;20478;-63
2023/07/17 09:41:26;;;;;;;3.15;1.15;;;21.90;60.60;;;;;;5083041;28;20044;-61
2023/07/17 09:44:05;;;;;;;2.15;1.58;;;22.10;60.40;;;;;;5073870;28;20073;-61
2023/07/17 09:46:37;;;;;;;1.88;1.20;;;22.20;60.10;;;;;;5085659;28;20073;-59
2023/07/17 09:49:03;;;;;;;1.67;1.30;;;22.40;59.60;;;;;;5067423;28;20406;-61
2023/07/17 09:51:30;;;;;;;3.13;1.50;;;22.50;58.50;;;;;;5075406;28;20278;-61
2023/07/17 09:53:58;;;;;;;1.75;1.00;;;22.40;58.80;;;;;;5073332;28;20016;-58
2023/07/17 09:56:29;;;;;;;1.42;1.10;;;22.30;59.30;;;;;;5079176;28;20092;-62
2023/07/17 09:59:20;;;;;;;0.82;0.80;;;22.30;59.50;;;;;;5073770;28;20024;-62
2023/07/17 10:01:48;;;;;;;2.47;1.13;;;22.40;59.40;;;;;;5070519;28;20517;-62
2023/07/17 10:04:17;;;;;;;1.42;0.95;;;22.60;59.10;;;;;;5072109;28;20032;-62
2023/07/17 10:06:44;;;;;;;1.17;0.80;;;22.90;58.90;;;;;;5073057;28;20043;-59
2023/07/17 10:09:13;;;;;;;2.08;1.00;;;23.10;58.00;;;;;;5072620;28;20012;-59
2023/07/17 10:11:39;;;;;;;3.13;1.40;;;23.10;57.50;;;;;;5071553;28;20032;-59
2023/07/17 10:14:05;;;;;;;1.52;0.90;;;22.90;56.40;;;;;;5072966;28;20036;-58
2023/07/17 10:16:30;;;;;;;3.92;1.60;;;22.70;57.30;;;;;;5074524;28;20075;-59
2023/07/17 10:18:56;;;;;;;3.75;1.10;;;22.50;57.60;;;;;;5070193;28;20052;-62
2023/07/17 10:21:22;;;;;;;1.80;1.00;;;22.30;58.70;;;;;;5074286;28;20029;-61
2023/07/17 10:23:50;;;;;;;1.40;1.00;;;22.10;58.00;;;;;;5072080;28;20031;-59
2023/07/17 10:26:19;;;;;;;2.35;1.02;;;22.00;58.30;;;;;;5073549;28;20033;-63
2023/07/17 10:29:00;;;;;;;2.08;1.15;;;21.90;58.80;;;;;;5079217;28;20025;-66
2023/07/17 10:31:26;;;;;;;3.20;1.23;;;21.90;59.00;;;;;;5071802;28;20020;-62
2023/07/17 10:33:58;;;;;;;2.58;1.55;;;21.90;58.60;;;;;;5075845;28;20787;-62
2023/07/17 10:36:41;;;;;;;3.58;1.48;;;22.10;58.40;;;;;;5074305;28;20055;-58
2023/07/17 10:39:07;;;;;;;5.60;1.20;;;22.30;58.30;;;;;;5073390;28;20020;-59
2023/07/17 10:41:36;;;;;;;2.13;1.02;;;22.50;58.60;;;;;;5079334;28;20031;-62
2023/07/17 10:44:03;;;;;;;5.07;1.80;;;22.70;57.80;;;;;;5073645;28;20467;-58
2023/07/17 10:46:30;;;;;;;3.20;1.63;;;22.70;57.30;;;;;;5078330;28;20061;-59
2023/07/17 10:49:06;;;;;;;1.20;0.80;;;22.70;56.80;;;;;;5083667;28;20475;-59
2023/07/17 10:51:32;;;;;;;1.88;0.90;;;22.50;57.20;;;;;;5081355;28;20107;-62
2023/07/17 10:53:58;;;;;;;0.38;0.35;;;22.30;58.00;;;;;;5069626;28;20166;-63
2023/07/17 10:56:24;;;;;;;0.80;0.80;;;21.90;59.30;;;;;;5082649;28;20515;-64
2023/07/17 10:58:51;;;;;;;2.90;0.57;;;21.60;60.60;;;;;;5081991;28;20027;-63
2023/07/17 11:01:16;;;;;;;0.90;0.50;;;21.30;61.70;;;;;;5077203;28;20047;-63
2023/07/17 11:03:49;;;;;;;1.02;0.60;;;21.00;62.90;;;;;;5078914;28;20032;-59
2023/07/17 11:06:16;;;;;;;1.25;0.47;;;20.80;64.10;;;;;;5075860;28;20049;-61
2023/07/17 11:08:51;;;;;;;0.40;0.40;;;20.70;64.80;;;;;;5079085;28;20390;-59
2023/07/17 11:11:18;;;;;;;0.52;0.47;;;20.60;65.50;;;;;;5070716;28;20449;-61
2023/07/17 11:13:48;;;;;;;0.30;0.30;;;20.80;65.80;;;;;;5077210;28;20028;-59
2023/07/17 11:16:13;;;;;;;5.28;0.77;;;21.20;65.60;;;;;;5082930;28;20040;-59
2023/07/17 11:18:57;;;;;;;0.75;0.50;;;21.70;64.90;;;;;;5070956;28;20036;-59
2023/07/17 11:21:25;;;;;;;3.28;0.40;;;22.00;63.40;;;;;;5075689;28;20108;-59
2023/07/17 11:23:56;;;;;;;0.50;0.50;;;22.20;63.50;;;;;;5072301;28;20024;-61
2023/07/17 11:26:31;;;;;;;0.98;0.80;;;22.60;63.60;;;;;;5079737;28;20062;-62
2023/07/17 11:28:59;;;;;;;0.65;0.55;;;22.80;62.80;;;;;;5076399;28;20016;-59
2023/07/17 11:31:28;;;;;;;0.68;0.50;;;22.90;62.40;;;;;;5071326;28;20047;-63
2023/07/17 11:33:59;;;;;;;0.50;0.50;;;23.00;62.30;;;;;;5079350;28;20072;-62
2023/07/17 11:36:32;;;;;;;0.60;0.50;;;23.30;62.20;;;;;;5075873;28;20043;-63
2023/07/17 11:39:14;;;;;;;1.05;0.73;;;23.60;61.80;;;;;;5068043;28;20431;-58
2023/07/17 11:41:45;;;;;;;0.95;0.80;;;23.80;60.60;;;;;;5075927;28;20115;-63
2023/07/17 11:44:11;;;;;;;2.90;0.73;;;23.60;59.90;;;;;;5069570;28;20111;-59
2023/07/17 11:46:40;;;;;;;0.88;0.80;;;23.40;60.10;;;;;;5079613;28;20123;-59
2023/07/17 11:49:05;;;;;;;0.57;0.52;;;23.30;60.40;;;;;;5081349;28;20063;-63
2023/07/17 11:51:31;;;;;;;1.67;0.85;;;23.50;60.70;;;;;;5074974;28;20064;-62
2023/07/17 11:53:57;;;;;;;0.65;0.65;;;23.60;60.60;;;;;;5076939;28;20025;-60
2023/07/17 11:56:35;;;;;;;1.00;0.70;;;23.60;59.70;;;;;;5072871;28;20032;-61
2023/07/17 11:59:02;;;;;;;1.20;0.75;;;23.40;59.90;;;;;;5071591;28;20086;-62
2023/07/17 12:01:27;;;;;;;1.58;0.80;;;23.20;59.90;;;;;;5075148;28;20503;-58
2023/07/17 12:03:53;;;;;;;0.70;0.70;;;23.10;60.40;;;;;;5075034;28;20081;-57
2023/07/17 12:06:19;;;;;;;0.50;0.45;;;22.90;60.50;;;;;;5082840;28;20092;-61
2023/07/17 12:08:46;;;;;;;0.68;0.68;;;22.70;61.10;;;;;;5081093;28;20112;-60
2023/07/17 12:11:12;;;;;;;0.98;0.70;;;22.60;61.50;;;;;;5071633;28;20071;-61
2023/07/17 12:13:38;;;;;;;1.58;0.88;;;22.60;61.80;;;;;;5074049;28;20028;-57
2023/07/17 12:16:04;;;;;;;1.55;0.90;;;22.60;62.00;;;;;;5077020;28;20028;-57
2023/07/17 12:18:29;;;;;;;3.42;0.95;;;22.60;62.20;;;;;;5074756;28;20322;-58
2023/07/17 12:20:55;;;;;;;4.10;1.10;;;22.60;62.50;;;;;;5077180;28;20029;-57
2023/07/17 12:23:22;;;;;;;0.68;0.68;;;22.60;63.40;;;;;;5079671;28;20399;-61
2023/07/17 12:25:48;;;;;;;1.88;1.10;;;22.50;63.70;;;;;;5075990;28;20032;-57
2023/07/17 12:28:14;;;;;;;2.15;1.17;;;22.50;64.10;;;;;;5075622;28;20108;-57
2023/07/17 12:30:41;;;;;;;1.42;1.10;;;22.60;63.90;;;;;;5081984;28;20039;-62
2023/07/17 12:33:06;;;;;;;2.97;1.10;;;22.60;64.20;;;;;;5073488;28;20115;-58
2023/07/17 12:35:32;;;;;;;1.70;1.13;;;22.70;64.10;;;;;;5085076;28;20100;-62
2023/07/17 12:37:58;;;;;;;2.00;0.88;;;22.70;64.00;;;;;;5068620;28;20062;-63
2023/07/17 12:40:23;;;;;;;2.15;1.27;;;22.70;64.00;;;;;;5084602;28;20143;-62
2023/07/17 12:42:49;;;;;;;2.20;1.08;;;22.70;64.10;;;;;;5075812;28;20024;-59
2023/07/17 12:45:15;;;;;;;1.88;1.08;;;22.90;63.70;;;;;;5080851;28;20388;-58